Terminal Aerodrome Forecast
Issued by NWS

Home | Current Version | Previous Version | Graphics & Text | Print | Product List | Glossary On
Versions: 1 2 3 4 5 6 7 8 9 10 11 12 13 14 15 16 17 18 19 20
000
FTUS43 KGRB 031900 AAA
TAFATW
TAF AMD
KATW 031939Z 0320/0418 24011G18KT P6SM -SN BKN011
     FM032300 27010G19KT P6SM BKN025
     FM040300 28012G20KT P6SM SCT100
     FM041600 28014G24KT P6SM BKN028=

USA.gov is the U.S. government's official web portal to all federal, state and local government web resources and services.